メインページ
METAR-TAF:

METAR-TAF

空港 :

広島空港

広島, 日本

緯度: 34-26N, 経度: 132-55E, 海抜: 331m

現時点の気象観測

当レポートは1時間9分前の11:00(UTC)に作成
北西の風 7kt
気温 16°C
湿度 82%
気圧 1012 hPa
視程10km以上
高度200ftの雲はほとんどない
高度3000ftの千切れ雲あり
高度6000ftの千切れ雲あり
弱いにわか雨

METAR: RJOA 161100Z 32007KT 9999 -SHRA FEW002 BKN030 BKN060 16/13 Q1012

時間: 21:09 (12:09 UTC)

予報

当レポートは1時間3分前の11:06(UTC)に作成
予報は16日の 12時(UTC)から 17日の 18時(UTC)まで有効
北/北西の風 5kt
視程10km以上
高度2000ftの雲はほとんどない
高度4500ftの雲は散在している
16日の 22時(UTC)から 17日の 00時(UTC)まで徐々に
南/南東の風 5kt

TAF: RJOA 161106Z 1612/1718 34005KT 9999 FEW020 SCT045 BECMG 1622/1700 15005KT

4,000以上の空港の気象観測と天気予報(METAR報とTAF報)

利用可能な観測所は地図上に黄色い丸と赤い丸で示す。

丸の上にカーソルを重ねると観測所名を参照できる。

次にクリックすると気象観測と天気予報を参照できる。

マップの切り替え:黒色「×」印の緑ボタンをクリックして拡大、「-」印の緑ボタンをクリックして縮小、緑色の三角印をクリックして隣りの地図に切り替え


METAR-TAF: